Time;durP1;ratioP1;P1;durP2;ratioP2;P2;SDS_P1;SDS_P2;PMS_P1;PMS_P2;Temp;Humidity;BMP_temperature;BMP_pressure;BME280_temperature;BME280_humidity;BME280_pressure;Samples;Min_cycle;Max_cycle;Signal;HPM_P1;HPM_P2
2022/04/27 00:02:18;;;;;;;5.30;3.08;;;8.00;1.00;;;;;;5048874;28;20668;-76
2022/04/27 00:04:44;;;;;;;5.88;2.90;;;7.90;1.00;;;;;;5056977;28;20029;-77
2022/04/27 00:07:09;;;;;;;5.95;3.05;;;7.90;1.00;;;;;;5056918;28;20021;-76
2022/04/27 00:09:35;;;;;;;6.78;2.92;;;7.90;1.00;;;;;;5056666;28;20029;-76
2022/04/27 00:12:01;;;;;;;4.03;2.85;;;7.90;1.00;;;;;;5056817;28;20043;-76
2022/04/27 00:14:31;;;;;;;4.68;2.53;;;7.90;1.00;;;;;;5056005;28;20048;-76
2022/04/27 00:16:58;;;;;;;3.50;2.50;;;7.90;1.00;;;;;;5056606;28;20071;-76
2022/04/27 00:22:45;;;;;;;3.95;1.77;;;7.90;1.00;;;;;;5056920;28;20120;-76
2022/04/27 00:25:11;;;;;;;1.98;1.73;;;8.00;99.90;;;;;;5056535;28;20083;-76
2022/04/27 00:27:36;;;;;;;2.13;1.38;;;8.00;1.00;;;;;;5056476;28;20424;-76
2022/04/27 00:30:03;;;;;;;2.25;1.70;;;7.90;1.00;;;;;;5056401;28;20021;-76
2022/04/27 00:33:13;;;;;;;3.30;2.00;;;7.90;1.00;;;;;;5056152;28;20099;-76
2022/04/27 00:35:39;;;;;;;2.42;1.67;;;7.90;1.00;;;;;;5056440;28;20076;-76
2022/04/27 00:38:05;;;;;;;3.30;1.80;;;7.90;1.00;;;;;;5055962;28;20052;-76
2022/04/27 00:40:30;;;;;;;3.83;2.15;;;7.80;1.00;;;;;;5056017;28;20033;-77
2022/04/27 00:42:56;;;;;;;1.52;1.20;;;7.80;99.90;;;;;;5056291;28;20021;-76
2022/04/27 00:45:22;;;;;;;4.85;1.50;;;7.90;99.90;;;;;;5056116;28;20017;-76
2022/04/27 00:47:48;;;;;;;2.25;1.52;;;7.90;99.90;;;;;;5056259;28;20595;-76
2022/04/27 00:50:13;;;;;;;3.20;1.88;;;7.90;99.90;;;;;;5055889;28;20021;-76
2022/04/27 00:52:39;;;;;;;2.47;1.50;;;7.90;99.90;;;;;;5055921;28;20036;-76
2022/04/27 00:55:05;;;;;;;3.83;1.50;;;7.80;99.90;;;;;;5055844;28;20021;-77
2022/04/27 00:57:31;;;;;;;3.25;1.90;;;7.80;1.00;;;;;;5055764;28;20032;-76
2022/04/27 00:59:56;;;;;;;3.25;1.95;;;7.80;1.00;;;;;;5055777;28;20025;-77
2022/04/27 01:02:22;;;;;;;4.22;1.67;;;7.70;1.00;;;;;;5055820;28;20017;-76
2022/04/27 01:04:48;;;;;;;2.30;1.67;;;7.70;1.00;;;;;;5055716;28;20106;-76
2022/04/27 01:07:20;;;;;;;4.28;1.90;;;7.70;1.00;;;;;;5065803;28;20667;-77
2022/04/27 01:09:46;;;;;;;3.78;1.80;;;7.70;1.00;;;;;;5075758;28;20028;-77
2022/04/27 01:12:11;;;;;;;2.35;1.60;;;7.70;99.90;;;;;;5075745;28;20067;-76
2022/04/27 01:14:45;;;;;;;2.22;1.48;;;7.80;99.90;;;;;;5075062;28;20072;-76
2022/04/27 01:17:11;;;;;;;1.98;1.50;;;7.80;99.90;;;;;;5075478;28;20436;-76
2022/04/27 01:19:37;;;;;;;2.88;1.65;;;7.80;99.90;;;;;;5075539;28;20025;-76
2022/04/27 01:22:03;;;;;;;4.45;1.63;;;7.80;99.90;;;;;;5075757;28;20032;-76
2022/04/27 01:24:30;;;;;;;2.97;1.88;;;7.80;99.90;;;;;;5075455;28;20043;-76
2022/04/27 01:26:56;;;;;;;2.47;1.90;;;7.70;1.00;;;;;;5075680;28;20023;-76
2022/04/27 01:29:22;;;;;;;4.20;2.63;;;7.70;1.00;;;;;;5075337;28;20495;-76
2022/04/27 01:31:49;;;;;;;2.97;1.83;;;7.70;1.00;;;;;;5075295;28;20024;-76
2022/04/27 01:34:15;;;;;;;4.35;1.90;;;7.70;1.00;;;;;;5075159;28;20025;-76
2022/04/27 01:36:41;;;;;;;1.88;1.67;;;7.70;1.00;;;;;;5075272;28;20067;-76
2022/04/27 01:39:07;;;;;;;3.35;2.08;;;7.70;1.00;;;;;;5075260;28;20029;-76
2022/04/27 01:41:33;;;;;;;3.05;1.77;;;7.70;99.90;;;;;;5075186;28;20020;-75
2022/04/27 01:43:59;;;;;;;2.38;1.30;;;7.70;99.90;;;;;;5074996;28;20020;-76
2022/04/27 01:46:25;;;;;;;3.15;1.70;;;7.70;99.90;;;;;;5074982;28;20147;-76
2022/04/27 01:48:51;;;;;;;4.13;1.85;;;7.70;1.00;;;;;;5074782;28;20103;-76
2022/04/27 01:51:18;;;;;;;2.45;1.90;;;7.70;1.00;;;;;;5074888;28;20424;-76
2022/04/27 01:56:28;;;;;;;3.10;1.73;;;7.60;1.00;;;;;;5074976;28;20039;-76
2022/04/27 01:58:54;;;;;;;7.35;2.30;;;7.60;1.00;;;;;;5074644;28;20025;-77
2022/04/27 02:01:21;;;;;;;3.75;1.95;;;7.70;1.00;;;;;;5074404;28;20020;-76
2022/04/27 02:03:47;;;;;;;4.32;1.90;;;7.60;1.00;;;;;;5074947;28;20032;-76
2022/04/27 02:06:16;;;;;;;5.40;1.98;;;7.60;1.00;;;;;;5074413;28;20111;-76
2022/04/27 02:08:42;;;;;;;2.30;1.83;;;7.70;1.00;;;;;;5074761;28;20020;-76
2022/04/27 02:11:07;;;;;;;2.63;2.00;;;7.60;1.00;;;;;;5074473;28;20036;-76
2022/04/27 02:13:34;;;;;;;2.72;1.90;;;7.60;1.00;;;;;;5074319;28;20029;-77
2022/04/27 02:16:01;;;;;;;3.85;2.00;;;7.60;1.00;;;;;;5074764;28;20028;-77
2022/04/27 02:18:27;;;;;;;3.72;1.75;;;7.60;1.00;;;;;;5056422;28;20680;-76
2022/04/27 02:20:52;;;;;;;5.57;2.30;;;7.60;1.00;;;;;;5074530;28;20048;-77
2022/04/27 02:23:20;;;;;;;3.83;1.98;;;7.60;1.00;;;;;;5074185;28;20056;-76
2022/04/27 02:25:46;;;;;;;2.83;2.17;;;7.60;1.00;;;;;;5073780;28;20013;-76
2022/04/27 02:28:11;;;;;;;3.30;2.13;;;7.60;1.00;;;;;;5074243;28;20031;-76
2022/04/27 02:30:37;;;;;;;3.13;2.10;;;7.70;99.90;;;;;;5073965;28;20024;-76
2022/04/27 02:33:02;;;;;;;4.97;2.97;;;7.70;1.00;;;;;;5056211;28;20055;-76
2022/04/27 02:35:28;;;;;;;6.00;2.53;;;7.70;1.00;;;;;;5073968;28;20031;-76
2022/04/27 02:37:54;;;;;;;5.82;2.50;;;7.70;1.00;;;;;;5074278;28;20475;-76
2022/04/27 02:40:19;;;;;;;7.55;2.40;;;7.70;1.00;;;;;;5074192;28;20025;-76
2022/04/27 02:42:45;;;;;;;7.32;2.95;;;7.70;1.00;;;;;;5073806;28;20069;-76
2022/04/27 02:45:10;;;;;;;4.20;2.30;;;7.70;1.00;;;;;;5074131;28;20025;-76
2022/04/27 02:47:36;;;;;;;4.88;2.28;;;7.70;1.00;;;;;;5074065;28;20426;-76
2022/04/27 02:52:49;;;;;;;4.20;2.03;;;7.70;1.00;;;;;;5074037;28;20535;-76
2022/04/27 02:55:15;;;;;;;3.58;1.50;;;7.70;99.90;;;;;;5074064;28;20460;-76
2022/04/27 02:57:41;;;;;;;4.57;2.15;;;7.80;99.90;;;;;;5065467;28;20021;-76
2022/04/27 03:00:07;;;;;;;2.80;2.05;;;7.80;99.90;;;;;;5053621;28;20071;-76
2022/04/27 03:02:33;;;;;;;5.90;2.08;;;7.80;99.90;;;;;;5053590;28;20143;-77
2022/04/27 03:05:00;;;;;;;4.68;2.05;;;7.80;99.90;;;;;;5053539;28;20104;-77
2022/04/27 03:07:26;;;;;;;3.60;1.80;;;7.70;99.90;;;;;;5053959;28;20031;-76
2022/04/27 03:09:51;;;;;;;4.07;2.20;;;7.70;1.00;;;;;;5053869;28;20017;-76
2022/04/27 03:12:17;;;;;;;6.78;2.60;;;7.80;1.00;;;;;;5053633;28;20569;-76
2022/04/27 03:14:42;;;;;;;6.13;2.72;;;7.80;1.00;;;;;;5052988;28;20511;-76
2022/04/27 03:17:08;;;;;;;7.28;2.85;;;7.80;1.00;;;;;;5053478;28;20098;-76
2022/04/27 03:19:33;;;;;;;5.65;3.00;;;7.70;1.00;;;;;;5053616;28;20135;-76
2022/04/27 03:21:59;;;;;;;4.93;2.53;;;7.80;1.00;;;;;;5053638;28;20083;-76
2022/04/27 03:24:25;;;;;;;5.50;2.95;;;7.70;1.00;;;;;;5053309;28;20044;-76
2022/04/27 03:26:50;;;;;;;8.75;2.30;;;7.70;1.00;;;;;;5053711;28;20082;-76
2022/04/27 03:29:23;;;;;;;6.15;2.70;;;7.80;1.00;;;;;;5053239;28;20656;-76
2022/04/27 03:31:49;;;;;;;8.00;2.92;;;7.80;1.00;;;;;;5053725;28;20056;-76
2022/04/27 03:34:14;;;;;;;4.45;2.17;;;7.80;1.00;;;;;;5053305;28;20060;-76
2022/04/27 03:36:40;;;;;;;6.55;2.60;;;7.80;1.00;;;;;;5054900;28;20029;-76
2022/04/27 03:39:05;;;;;;;3.67;2.40;;;7.80;1.00;;;;;;5057470;28;20025;-76
2022/04/27 03:41:31;;;;;;;5.80;2.85;;;7.80;1.00;;;;;;5057420;28;20479;-76
2022/04/27 03:43:57;;;;;;;4.93;2.70;;;7.80;1.00;;;;;;5064750;28;20028;-76
2022/04/27 03:46:22;;;;;;;10.40;3.28;;;7.80;1.00;;;;;;5077483;28;20452;-76
2022/04/27 03:48:48;;;;;;;5.50;2.53;;;7.80;1.00;;;;;;5077686;28;20031;-76
2022/04/27 03:51:14;;;;;;;6.75;2.97;;;7.90;1.00;;;;;;5078072;28;20021;-76
2022/04/27 03:53:40;;;;;;;5.95;2.80;;;7.90;1.00;;;;;;5058392;28;20515;-76
2022/04/27 03:56:06;;;;;;;7.22;3.42;;;7.90;1.00;;;;;;5058330;28;20037;-76
2022/04/27 03:58:32;;;;;;;6.68;3.30;;;7.90;1.00;;;;;;5058100;28;20017;-76
2022/04/27 04:00:58;;;;;;;7.00;3.22;;;7.80;1.00;;;;;;5062637;28;20534;-76
2022/04/27 04:03:23;;;;;;;6.70;3.00;;;7.80;1.00;;;;;;5060810;28;20033;-77
2022/04/27 04:05:49;;;;;;;4.95;3.05;;;7.80;1.00;;;;;;5057179;28;20439;-77
2022/04/27 04:08:15;;;;;;;12.65;4.18;;;7.80;1.00;;;;;;5057194;28;20100;-76
2022/04/27 04:10:40;;;;;;;9.63;3.28;;;7.80;1.00;;;;;;5056548;28;20028;-76
2022/04/27 04:13:06;;;;;;;7.07;3.88;;;7.80;1.00;;;;;;5056756;28;20108;-76
2022/04/27 04:15:32;;;;;;;8.98;3.58;;;7.80;1.00;;;;;;5056517;28;20045;-77
2022/04/27 04:17:58;;;;;;;11.82;4.03;;;7.80;1.00;;;;;;5062362;28;20094;-76
2022/04/27 04:20:23;;;;;;;8.50;3.63;;;7.80;1.00;;;;;;5076393;28;20025;-78
2022/04/27 04:22:49;;;;;;;7.60;3.63;;;7.80;1.00;;;;;;5076251;28;20025;-78
2022/04/27 04:30:44;;;;;;;8.02;3.20;;;7.80;1.00;;;;;;5076316;28;20031;-78
2022/04/27 04:33:10;;;;;;;6.18;3.20;;;7.80;1.00;;;;;;5076185;28;20549;-78
2022/04/27 04:35:36;;;;;;;5.20;3.22;;;7.80;1.00;;;;;;5069352;28;20100;-78
2022/04/27 04:38:06;;;;;;;8.63;3.75;;;7.80;1.00;;;;;;5076024;28;20060;-77
2022/04/27 04:40:32;;;;;;;5.47;3.47;;;7.80;1.00;;;;;;5064647;28;20107;-77
2022/04/27 04:42:58;;;;;;;6.45;3.55;;;7.80;1.00;;;;;;5056440;28;20033;-77
2022/04/27 04:45:24;;;;;;;8.07;4.22;;;7.80;1.00;;;;;;5069243;28;20459;-78
2022/04/27 04:47:51;;;;;;;10.02;3.33;;;7.80;1.00;;;;;;5068983;28;20543;-78
2022/04/27 04:50:16;;;;;;;6.60;3.95;;;7.90;1.00;;;;;;5067330;28;20030;-78
2022/04/27 04:52:42;;;;;;;7.72;3.47;;;7.90;1.00;;;;;;5071162;28;20100;-78
2022/04/27 04:55:08;;;;;;;7.68;3.50;;;7.90;1.00;;;;;;5074579;28;20514;-78
2022/04/27 04:57:34;;;;;;;8.18;3.67;;;7.90;1.00;;;;;;5060291;28;20036;-77
2022/04/27 05:00:00;;;;;;;7.00;4.28;;;7.90;1.00;;;;;;5055866;28;20029;-78
2022/04/27 05:02:29;;;;;;;9.20;3.58;;;8.10;1.00;;;;;;5071273;28;20025;-78
2022/04/27 05:04:54;;;;;;;8.38;3.80;;;8.00;1.00;;;;;;5074409;28;20032;-79
2022/04/27 05:07:20;;;;;;;7.10;3.33;;;8.00;1.00;;;;;;5074587;28;20027;-78
2022/04/27 05:09:46;;;;;;;8.20;3.10;;;8.00;1.00;;;;;;5074518;28;20021;-79
2022/04/27 05:12:11;;;;;;;5.78;3.03;;;8.00;1.00;;;;;;5061447;28;20040;-78
2022/04/27 05:14:37;;;;;;;11.23;3.35;;;8.10;1.00;;;;;;5059536;28;20059;-78
2022/04/27 05:17:03;;;;;;;9.10;3.42;;;8.10;1.00;;;;;;5074372;28;20021;-78
2022/04/27 05:19:28;;;;;;;8.55;3.80;;;8.20;1.00;;;;;;5073984;28;20105;-78
2022/04/27 05:21:54;;;;;;;7.07;3.72;;;8.20;1.00;;;;;;5066598;28;20090;-77
2022/04/27 05:24:19;;;;;;;11.98;4.00;;;8.20;1.00;;;;;;5073978;28;20085;-78
2022/04/27 05:26:45;;;;;;;10.00;4.15;;;8.30;1.00;;;;;;5070439;28;20055;-79
2022/04/27 05:32:06;;;;;;;6.75;3.83;;;8.30;1.00;;;;;;5012287;28;20076;-79
2022/04/27 05:34:33;;;;;;;11.18;4.07;;;8.30;1.00;;;;;;5052957;28;20024;-79
2022/04/27 05:36:59;;;;;;;8.85;3.85;;;8.30;1.00;;;;;;5056085;28;20032;-78
2022/04/27 05:39:25;;;;;;;9.70;4.10;;;8.40;1.00;;;;;;5062431;28;20029;-78
2022/04/27 05:41:51;;;;;;;8.10;4.13;;;8.40;1.00;;;;;;5063933;28;20021;-79
2022/04/27 05:44:18;;;;;;;10.02;3.50;;;8.40;1.00;;;;;;5069461;28;20081;-78
2022/04/27 05:46:44;;;;;;;8.50;3.95;;;8.50;1.00;;;;;;5061289;28;20057;-78
2022/04/27 05:49:11;;;;;;;8.75;3.45;;;8.50;1.00;;;;;;5058632;28;20566;-78
2022/04/27 05:51:36;;;;;;;8.77;3.45;;;8.50;1.00;;;;;;5070955;28;20048;-78
2022/04/27 05:54:02;;;;;;;6.32;3.45;;;8.50;1.00;;;;;;5073314;28;20102;-78
2022/04/27 05:56:27;;;;;;;8.65;4.00;;;8.60;1.00;;;;;;5070498;28;20056;-78
2022/04/27 05:58:53;;;;;;;10.93;4.63;;;8.60;1.00;;;;;;5070069;28;20385;-78
2022/04/27 06:01:19;;;;;;;9.93;3.65;;;8.60;1.00;;;;;;5068877;28;20464;-78
2022/04/27 06:03:45;;;;;;;8.68;3.55;;;8.70;1.00;;;;;;5070414;28;20089;-78
2022/04/27 06:06:10;;;;;;;13.45;3.22;;;8.70;1.00;;;;;;5070248;28;20503;-78
2022/04/27 06:08:36;;;;;;;13.55;3.53;;;8.70;1.00;;;;;;5066869;28;20028;-78
2022/04/27 06:11:02;;;;;;;10.43;3.70;;;8.80;1.00;;;;;;5070633;28;20025;-78
2022/04/27 06:13:27;;;;;;;11.73;3.60;;;8.80;1.00;;;;;;5049446;28;20060;-78
2022/04/27 06:15:53;;;;;;;13.45;3.03;;;8.90;1.00;;;;;;5072974;28;20026;-78
2022/04/27 06:18:18;;;;;;;10.18;3.60;;;8.90;1.00;;;;;;5056615;28;20104;-78
2022/04/27 06:20:44;;;;;;;7.75;2.80;;;8.90;1.00;;;;;;5073844;28;20043;-78
2022/04/27 06:23:15;;;;;;;11.10;2.97;;;9.00;1.00;;;;;;5072366;28;20021;-78
2022/04/27 06:25:41;;;;;;;8.48;3.67;;;9.00;1.00;;;;;;5069876;28;20024;-78
2022/04/27 06:28:07;;;;;;;13.10;3.40;;;9.10;1.00;;;;;;5070527;28;20109;-78
2022/04/27 06:30:35;;;;;;;13.75;3.30;;;9.10;1.00;;;;;;5052533;28;20472;-78
2022/04/27 06:33:01;;;;;;;9.93;3.55;;;9.20;1.00;;;;;;5071902;28;20096;-78
2022/04/27 06:35:27;;;;;;;10.60;3.28;;;9.20;1.00;;;;;;5073799;28;20029;-78
2022/04/27 06:37:52;;;;;;;10.18;3.30;;;9.20;99.90;;;;;;5055365;28;20120;-78
2022/04/27 06:40:18;;;;;;;7.95;2.80;;;9.30;99.90;;;;;;5070682;28;20028;-78
2022/04/27 06:42:44;;;;;;;11.07;3.00;;;9.30;99.90;;;;;;5073384;28;20035;-78
2022/04/27 06:45:11;;;;;;;9.15;2.58;;;9.40;99.90;;;;;;5069472;28;20475;-78
2022/04/27 06:47:36;;;;;;;10.35;2.88;;;9.40;99.90;;;;;;5069943;28;20029;-78
2022/04/27 06:50:02;;;;;;;11.88;3.10;;;9.50;99.90;;;;;;5073132;28;20160;-78
2022/04/27 06:52:28;;;;;;;6.15;2.60;;;9.60;99.90;;;;;;5071890;28;20107;-78
2022/04/27 06:54:53;;;;;;;10.63;2.63;;;9.60;99.90;;;;;;5072507;28;20028;-78
2022/04/27 06:57:19;;;;;;;12.23;3.40;;;9.80;99.90;;;;;;5069358;28;20029;-78
2022/04/27 06:59:44;;;;;;;9.05;2.63;;;10.00;99.90;;;;;;5067932;28;20031;-78
2022/04/27 07:02:12;;;;;;;11.80;3.42;;;10.30;99.90;;;;;;5069762;28;20055;-78
2022/04/27 07:04:40;;;;;;;9.68;2.50;;;10.40;99.90;;;;;;5070597;28;20020;-78
2022/04/27 07:07:06;;;;;;;8.45;2.88;;;10.70;99.90;;;;;;5070060;28;20024;-79
2022/04/27 07:09:31;;;;;;;17.02;3.58;;;10.60;99.90;;;;;;5066114;28;20023;-78
2022/04/27 07:11:58;;;;;;;15.20;2.50;;;10.60;99.90;;;;;;5068037;28;20413;-77
2022/04/27 07:14:24;;;;;;;7.25;2.33;;;10.60;99.90;;;;;;5065518;28;20063;-78
2022/04/27 07:16:49;;;;;;;7.15;2.50;;;10.80;99.90;;;;;;5060451;28;20025;-78
2022/04/27 07:19:15;;;;;;;9.70;2.15;;;11.00;99.90;;;;;;5066200;28;20107;-79
2022/04/27 07:21:41;;;;;;;10.82;2.25;;;11.30;99.90;;;;;;5065933;28;20047;-79
2022/04/27 07:24:07;;;;;;;6.07;2.28;;;11.40;99.90;;;;;;5068352;28;20064;-79
2022/04/27 07:26:33;;;;;;;4.28;1.65;;;11.40;99.90;;;;;;5045148;28;20021;-79
2022/04/27 07:28:59;;;;;;;7.97;2.00;;;11.60;99.90;;;;;;5072232;28;20037;-79
2022/04/27 07:31:25;;;;;;;5.03;1.55;;;11.50;99.90;;;;;;5072109;28;20032;-78
2022/04/27 07:33:51;;;;;;;5.75;1.80;;;11.80;99.90;;;;;;5072530;28;20160;-78
2022/04/27 07:36:17;;;;;;;7.78;2.05;;;11.80;99.90;;;;;;5072173;28;20480;-79
2022/04/27 07:38:43;;;;;;;8.80;1.70;;;11.80;99.90;;;;;;5063897;28;20032;-78
2022/04/27 07:41:09;;;;;;;4.32;1.60;;;12.00;99.90;;;;;;5052254;28;20029;-79
2022/04/27 07:43:34;;;;;;;8.93;1.52;;;12.20;99.90;;;;;;5058910;28;20031;-79
2022/04/27 07:46:00;;;;;;;7.85;2.25;;;12.50;99.90;;;;;;5072223;28;20099;-78
2022/04/27 07:48:32;;;;;;;8.32;2.13;;;12.50;99.90;;;;;;5058256;28;20033;-78
2022/04/27 07:50:59;;;;;;;5.75;1.17;;;12.70;99.90;;;;;;5052634;28;20025;-79
2022/04/27 07:53:25;;;;;;;6.50;1.98;;;12.70;99.90;;;;;;5052036;28;20100;-78
2022/04/27 07:55:50;;;;;;;10.63;2.58;;;13.00;99.90;;;;;;5068544;28;20668;-79
2022/04/27 07:58:16;;;;;;;9.93;2.08;;;13.60;99.90;;;;;;5060058;28;20721;-78
2022/04/27 08:00:41;;;;;;;10.77;2.35;;;13.80;99.90;;;;;;5067643;28;20463;-79
2022/04/27 08:03:07;;;;;;;7.45;1.80;;;14.00;99.90;;;;;;5061908;28;20392;-78
2022/04/27 08:05:33;;;;;;;7.20;1.77;;;13.80;99.90;;;;;;5039730;28;20039;-78
2022/04/27 08:07:58;;;;;;;4.57;1.52;;;13.80;99.90;;;;;;5060191;28;20098;-78
2022/04/27 08:10:24;;;;;;;5.05;1.58;;;13.80;99.90;;;;;;5067680;28;20456;-78
2022/04/27 08:12:50;;;;;;;7.47;1.63;;;14.00;99.90;;;;;;5051910;28;20017;-78
2022/04/27 08:15:18;;;;;;;4.43;1.95;;;13.90;99.90;;;;;;5048885;28;21365;-79
2022/04/27 08:18:01;;;;;;;10.35;1.90;;;13.60;99.90;;;;;;5046914;28;20269;-78
2022/04/27 08:23:14;;;;;;;5.95;2.00;;;13.30;99.90;;;;;;5051002;28;20044;-78
2022/04/27 08:25:40;;;;;;;8.75;2.20;;;13.90;99.90;;;;;;5055567;28;20490;-79
2022/04/27 08:28:07;;;;;;;7.65;1.50;;;13.70;99.90;;;;;;5052321;28;20048;-78
2022/04/27 08:30:34;;;;;;;6.57;2.25;;;13.70;99.90;;;;;;5056779;28;20484;-78
2022/04/27 08:33:00;;;;;;;10.85;1.80;;;14.40;99.90;;;;;;5056001;28;20512;-79
2022/04/27 08:35:29;;;;;;;7.00;2.03;;;14.30;99.90;;;;;;5042999;28;20097;-79
2022/04/27 08:37:55;;;;;;;7.80;1.38;;;14.40;99.90;;;;;;5036163;28;20033;-78
2022/04/27 08:40:21;;;;;;;7.82;1.42;;;14.40;99.90;;;;;;5036588;28;20021;-78
2022/04/27 08:42:50;;;;;;;7.55;2.00;;;14.30;99.90;;;;;;5036062;28;20044;-79
2022/04/27 08:45:17;;;;;;;6.07;1.42;;;14.10;99.90;;;;;;5045826;28;20047;-79
2022/04/27 08:47:46;;;;;;;6.20;1.42;;;14.10;99.90;;;;;;5043032;28;20066;-78
2022/04/27 08:50:13;;;;;;;9.13;1.85;;;14.10;99.90;;;;;;5046482;28;20036;-79
2022/04/27 08:52:43;;;;;;;6.32;1.40;;;14.30;99.90;;;;;;5033261;28;20074;-80
2022/04/27 08:55:10;;;;;;;5.03;1.50;;;14.30;99.90;;;;;;5040098;28;20052;-79
2022/04/27 08:57:37;;;;;;;7.70;2.08;;;14.20;99.90;;;;;;5042931;28;20075;-80
2022/04/27 09:00:07;;;;;;;9.65;1.73;;;14.00;99.90;;;;;;5030718;28;20098;-80
2022/04/27 09:02:33;;;;;;;11.13;1.70;;;14.00;99.90;;;;;;5054599;28;20035;-79
2022/04/27 09:05:18;;;;;;;2.97;1.08;;;14.10;99.90;;;;;;5054400;28;20037;-79
2022/04/27 09:07:52;;;;;;;4.20;1.27;;;13.90;99.90;;;;;;5054728;28;20025;-78
2022/04/27 09:10:27;;;;;;;7.28;1.30;;;14.10;99.90;;;;;;5046140;28;20040;-78
2022/04/27 09:12:56;;;;;;;4.03;1.70;;;14.20;99.90;;;;;;5043106;28;20048;-79
2022/04/27 09:15:24;;;;;;;5.88;1.35;;;14.70;99.90;;;;;;5031082;28;20049;-79
2022/04/27 09:20:47;;;;;;;6.32;0.93;;;15.30;99.90;;;;;;5065784;28;20110;-78
2022/04/27 09:23:27;;;;;;;5.93;1.38;;;15.00;99.90;;;;;;5060096;28;20398;-79
2022/04/27 09:25:59;;;;;;;3.37;1.20;;;15.60;99.90;;;;;;5063013;28;20049;-79
2022/04/27 09:28:32;;;;;;;4.63;1.40;;;15.80;99.90;;;;;;5061900;28;20077;-79
2022/04/27 09:30:59;;;;;;;7.43;1.52;;;16.20;99.90;;;;;;5065647;28;20029;-79
2022/04/27 09:33:38;;;;;;;5.47;1.52;;;16.10;99.90;;;;;;5074390;28;20404;-79
2022/04/27 09:36:23;;;;;;;5.20;1.60;;;15.90;99.90;;;;;;5061581;28;20495;-79
2022/04/27 09:38:49;;;;;;;4.25;1.63;;;16.20;99.90;;;;;;5070635;28;20532;-79
2022/04/27 09:41:14;;;;;;;7.15;1.65;;;16.30;99.90;;;;;;5054084;28;20052;-79
2022/04/27 09:43:44;;;;;;;13.55;2.55;;;16.70;99.90;;;;;;5054544;28;20029;-79
2022/04/27 09:46:22;;;;;;;8.07;1.60;;;16.90;99.90;;;;;;5073772;28;20020;-79
2022/04/27 09:49:11;;;;;;;9.65;1.85;;;17.00;99.90;;;;;;5063967;28;20112;-79
2022/04/27 09:51:37;;;;;;;6.80;1.65;;;17.00;99.90;;;;;;5053919;28;20090;-79
2022/04/27 09:54:04;;;;;;;7.63;1.50;;;17.30;99.90;;;;;;5073008;28;20029;-80
2022/04/27 09:56:37;;;;;;;5.85;1.17;;;17.90;99.90;;;;;;5066982;28;20047;-79
2022/04/27 09:59:05;;;;;;;5.13;1.40;;;17.30;99.90;;;;;;5051965;28;20041;-80
2022/04/27 10:01:35;;;;;;;2.83;1.15;;;16.70;99.90;;;;;;5054092;28;20029;-79
2022/04/27 10:04:03;;;;;;;5.70;1.70;;;16.40;99.90;;;;;;5053818;28;20025;-79
2022/04/27 10:06:30;;;;;;;6.90;1.58;;;17.00;99.90;;;;;;5053397;28;20126;-79
2022/04/27 10:09:02;;;;;;;6.20;1.55;;;17.70;99.90;;;;;;5063001;28;20044;-79
2022/04/27 10:11:28;;;;;;;4.75;1.40;;;17.80;99.90;;;;;;5035864;28;20095;-80
2022/04/27 10:13:55;;;;;;;6.43;1.40;;;17.80;99.90;;;;;;5059478;28;20483;-79
2022/04/27 10:16:22;;;;;;;6.13;1.70;;;17.70;99.90;;;;;;5067452;28;20025;-80
2022/04/27 10:18:48;;;;;;;7.53;1.58;;;17.70;99.90;;;;;;5072165;28;20078;-79
2022/04/27 10:21:14;;;;;;;4.88;1.75;;;18.10;99.90;;;;;;5075601;28;20434;-79
2022/04/27 10:23:46;;;;;;;7.22;1.92;;;18.20;99.90;;;;;;5058719;28;20079;-80
2022/04/27 10:26:28;;;;;;;4.10;1.48;;;18.50;99.90;;;;;;5053603;28;20021;-79
2022/04/27 10:29:05;;;;;;;6.00;1.60;;;18.90;99.90;;;;;;5065701;28;20025;-79
2022/04/27 10:31:51;;;;;;;6.38;1.45;;;19.50;99.90;;;;;;5068091;28;20008;-79
2022/04/27 10:34:21;;;;;;;6.43;1.55;;;18.60;99.90;;;;;;5072602;28;20044;-80
2022/04/27 10:36:57;;;;;;;7.65;1.45;;;18.70;99.90;;;;;;5065923;28;20047;-80
2022/04/27 10:39:33;;;;;;;4.97;1.58;;;19.30;99.90;;;;;;5063181;28;20032;-79
2022/04/27 10:42:04;;;;;;;2.85;1.20;;;19.90;99.90;;;;;;5072042;28;20108;-79
2022/04/27 10:44:48;;;;;;;5.20;1.67;;;19.20;99.90;;;;;;5072688;28;20026;-79
2022/04/27 10:47:21;;;;;;;8.65;1.77;;;19.40;99.90;;;;;;5069233;28;20021;-80
2022/04/27 10:49:49;;;;;;;5.22;1.42;;;18.90;99.90;;;;;;5059560;28;20028;-79
2022/04/27 10:52:15;;;;;;;6.43;1.67;;;20.70;99.90;;;;;;5072960;28;20017;-80
2022/04/27 10:54:41;;;;;;;4.53;1.30;;;21.30;99.90;;;;;;5072287;28;20079;-79
2022/04/27 10:57:19;;;;;;;6.07;1.40;;;19.40;99.90;;;;;;5065619;28;20040;-79
2022/04/27 10:59:49;;;;;;;5.00;1.70;;;19.30;99.90;;;;;;5063684;28;20396;-80
2022/04/27 11:02:38;;;;;;;5.57;1.58;;;19.70;99.90;;;;;;5072645;28;20040;-79
2022/04/27 11:05:20;;;;;;;7.70;1.92;;;19.70;99.90;;;;;;5063926;28;20068;-80
2022/04/27 11:07:54;;;;;;;3.83;1.58;;;20.10;99.90;;;;;;5060696;28;20117;-79
2022/04/27 11:10:21;;;;;;;5.82;1.80;;;19.80;99.90;;;;;;5052654;28;20082;-79
2022/04/27 11:12:56;;;;;;;6.65;2.95;;;19.70;99.90;;;;;;5047782;28;20132;-79
2022/04/27 11:15:24;;;;;;;2.47;1.00;;;19.10;99.90;;;;;;5071015;28;20052;-78
2022/04/27 11:17:57;;;;;;;4.15;1.73;;;18.80;99.90;;;;;;5057043;28;20021;-78
2022/04/27 11:20:27;;;;;;;7.15;1.67;;;19.40;99.90;;;;;;5061671;28;20017;-78
2022/04/27 11:22:53;;;;;;;4.30;1.50;;;19.60;99.90;;;;;;5068054;28;20401;-79
2022/04/27 11:25:29;;;;;;;4.57;1.60;;;19.90;99.90;;;;;;5052245;28;20476;-79
2022/04/27 11:27:55;;;;;;;8.05;2.15;;;19.10;99.90;;;;;;5056387;28;20388;-79
2022/04/27 11:30:21;;;;;;;5.88;1.90;;;19.40;99.90;;;;;;5064966;28;20028;-79
2022/04/27 11:32:50;;;;;;;4.03;1.70;;;19.00;99.90;;;;;;5054612;28;20021;-79
2022/04/27 11:35:17;;;;;;;3.05;1.13;;;18.60;99.90;;;;;;5072028;28;20037;-79
2022/04/27 11:37:42;;;;;;;4.50;1.42;;;18.50;99.90;;;;;;5054304;28;20029;-79
2022/04/27 11:40:19;;;;;;;6.32;1.63;;;18.30;99.90;;;;;;5064283;28;20036;-79
2022/04/27 11:42:49;;;;;;;8.55;1.73;;;18.50;99.90;;;;;;5071490;28;20075;-79
2022/04/27 11:45:20;;;;;;;4.63;1.58;;;18.60;99.90;;;;;;5052218;28;20021;-80
2022/04/27 11:47:59;;;;;;;5.45;1.90;;;18.30;99.90;;;;;;5034472;28;20063;-80
2022/04/27 11:50:25;;;;;;;7.63;2.33;;;18.20;99.90;;;;;;5066997;28;20021;-79
2022/04/27 11:52:58;;;;;;;6.57;2.22;;;18.20;99.90;;;;;;5034226;28;20026;-80
2022/04/27 11:55:24;;;;;;;8.55;2.35;;;18.10;99.90;;;;;;5071363;28;20471;-80
2022/04/27 11:57:50;;;;;;;4.93;1.73;;;18.20;99.90;;;;;;5071163;28;20033;-80
2022/04/27 12:00:20;;;;;;;6.05;1.25;;;18.60;99.90;;;;;;5073203;28;20047;-81
2022/04/27 12:02:45;;;;;;;;;;;18.30;99.90;;;;;;5053161;28;20030;-80
2022/04/27 12:05:11;;;;;;;3.88;1.35;;;18.00;99.90;;;;;;5058697;28;20394;-80
2022/04/27 12:07:38;;;;;;;8.88;2.08;;;17.70;99.90;;;;;;5075664;28;20036;-80
2022/04/27 12:10:06;;;;;;;4.85;1.67;;;17.90;99.90;;;;;;5076096;28;20017;-80
2022/04/27 12:12:38;;;;;;;6.28;1.83;;;17.90;99.90;;;;;;5072495;28;20106;-80
2022/04/27 12:15:11;;;;;;;3.70;1.40;;;18.50;99.90;;;;;;5070499;28;20118;-80
2022/04/27 12:17:47;;;;;;;6.35;2.17;;;18.70;99.90;;;;;;5058951;28;20017;-80
2022/04/27 12:20:26;;;;;;;4.70;1.70;;;19.00;99.90;;;;;;5059375;28;20035;-80
2022/04/27 12:23:00;;;;;;;5.57;2.08;;;18.80;99.90;;;;;;5059822;28;20021;-79
2022/04/27 12:25:45;;;;;;;6.20;1.65;;;18.90;99.90;;;;;;5040210;28;20387;-80
2022/04/27 12:28:15;;;;;;;5.80;1.70;;;18.90;99.90;;;;;;5061933;28;20024;-80
2022/04/27 12:30:59;;;;;;;4.20;1.52;;;19.40;99.90;;;;;;5072787;28;20036;-80
2022/04/27 12:33:28;;;;;;;3.17;1.40;;;20.00;99.90;;;;;;5053492;28;20029;-80
2022/04/27 12:39:09;;;;;;;4.68;1.23;;;20.00;99.90;;;;;;5064948;28;20071;-80
2022/04/27 12:41:43;;;;;;;6.40;1.58;;;20.30;99.90;;;;;;5067398;28;20032;-80
2022/04/27 12:44:25;;;;;;;8.63;1.77;;;19.80;99.90;;;;;;5055199;28;20085;-79
2022/04/27 12:46:59;;;;;;;3.58;1.52;;;19.50;99.90;;;;;;5037330;28;20082;-80
2022/04/27 12:49:29;;;;;;;4.43;1.30;;;19.60;99.90;;;;;;5055206;28;20079;-80
2022/04/27 12:52:12;;;;;;;6.95;1.75;;;19.70;99.90;;;;;;5064761;28;20498;-80
2022/04/27 12:54:38;;;;;;;4.88;1.52;;;19.70;99.90;;;;;;5068495;28;20039;-80
2022/04/27 12:57:03;;;;;;;6.43;1.60;;;21.10;99.90;;;;;;5071757;28;20111;-80
2022/04/27 12:59:29;;;;;;;3.78;1.70;;;21.80;99.90;;;;;;5074887;28;20029;-80
2022/04/27 13:01:58;;;;;;;3.17;1.50;;;20.40;99.90;;;;;;5074689;28;20025;-80
2022/04/27 13:04:24;;;;;;;4.32;1.50;;;20.00;99.90;;;;;;5056051;28;20025;-80
2022/04/27 13:06:51;;;;;;;3.13;1.42;;;19.50;99.90;;;;;;5055188;28;20028;-80
2022/04/27 13:12:01;;;;;;;3.78;1.55;;;19.90;99.90;;;;;;5055004;28;20435;-80
2022/04/27 13:14:27;;;;;;;4.43;1.70;;;19.70;99.90;;;;;;5070965;28;20493;-79
2022/04/27 13:16:55;;;;;;;6.78;1.38;;;19.80;99.90;;;;;;5069662;28;20028;-77
2022/04/27 13:19:21;;;;;;;4.57;1.70;;;20.30;99.90;;;;;;5055146;28;20025;-77
2022/04/27 13:21:47;;;;;;;6.75;1.75;;;19.80;99.90;;;;;;5053988;28;20103;-76
2022/04/27 13:24:13;;;;;;;4.28;1.58;;;20.50;99.90;;;;;;5071607;28;20516;-76
2022/04/27 13:26:39;;;;;;;6.18;1.90;;;20.10;99.90;;;;;;5074540;28;20043;-77
2022/04/27 13:29:04;;;;;;;4.68;1.58;;;19.30;99.90;;;;;;5074399;28;20360;-77